Time;durP1;ratioP1;P1;durP2;ratioP2;P2;SDS_P1;SDS_P2;PMS_P1;PMS_P2;Temp;Humidity;BMP_temperature;BMP_pressure;BME280_temperature;BME280_humidity;BME280_pressure;Samples;Min_cycle;Max_cycle;Signal;HPM_P1;HPM_P2
2023/06/09 00:00:18;;;;;;;10.98;10.00;;;22.50;99.90;;;;;;6305524;22;20006;-63
2023/06/09 00:02:47;;;;;;;10.60;9.70;;;22.40;99.90;;;;;;6305385;22;20011;-63
2023/06/09 00:05:13;;;;;;;10.48;9.27;;;22.40;99.90;;;;;;6305548;22;19999;-63
2023/06/09 00:07:39;;;;;;;10.23;9.43;;;22.40;99.90;;;;;;6305317;22;20003;-62
2023/06/09 00:10:06;;;;;;;10.63;9.63;;;22.40;99.90;;;;;;6305976;22;20157;-63
2023/06/09 00:12:31;;;;;;;9.90;9.10;;;22.30;99.90;;;;;;6305655;22;20056;-63
2023/06/09 00:14:58;;;;;;;10.93;9.93;;;22.30;99.90;;;;;;6305735;22;20349;-62
2023/06/09 00:17:24;;;;;;;11.55;9.90;;;22.30;99.90;;;;;;6305024;22;20061;-62
2023/06/09 00:19:52;;;;;;;10.30;9.50;;;22.30;99.90;;;;;;6305645;22;20007;-63
2023/06/09 00:22:19;;;;;;;10.00;9.10;;;22.30;99.90;;;;;;6305556;22;20011;-62
2023/06/09 00:24:46;;;;;;;9.90;9.10;;;22.30;99.90;;;;;;6305401;22;20006;-62
2023/06/09 00:27:12;;;;;;;10.55;9.60;;;22.20;99.90;;;;;;6304994;22;20009;-62
2023/06/09 00:29:38;;;;;;;10.25;9.23;;;22.20;99.90;;;;;;6306101;22;20022;-63
2023/06/09 00:32:04;;;;;;;10.50;9.60;;;22.20;99.90;;;;;;6304662;22;20019;-63
2023/06/09 00:34:30;;;;;;;10.32;9.25;;;22.20;99.90;;;;;;6305163;22;20457;-63
2023/06/09 00:36:56;;;;;;;10.18;9.15;;;22.20;99.90;;;;;;6305182;22;19995;-62
2023/06/09 00:39:22;;;;;;;10.23;9.32;;;22.10;99.90;;;;;;6305215;22;20032;-63
2023/06/09 00:41:48;;;;;;;10.52;9.40;;;22.10;99.90;;;;;;6305029;22;20014;-62
2023/06/09 00:44:15;;;;;;;9.55;8.75;;;22.00;99.90;;;;;;6305066;22;20015;-63
2023/06/09 00:46:42;;;;;;;10.25;9.00;;;22.00;99.90;;;;;;6305144;22;20030;-63
2023/06/09 00:49:09;;;;;;;10.60;8.45;;;22.00;99.90;;;;;;6305230;22;20353;-62
2023/06/09 00:51:36;;;;;;;9.52;8.82;;;21.90;99.90;;;;;;6304919;22;19996;-62
2023/06/09 00:54:03;;;;;;;9.18;8.38;;;22.00;99.90;;;;;;6305256;22;20053;-63
2023/06/09 00:56:31;;;;;;;9.57;8.63;;;22.00;99.90;;;;;;6305065;22;20075;-63
2023/06/09 00:58:58;;;;;;;9.65;8.75;;;21.90;99.90;;;;;;6305296;22;20007;-63
2023/06/09 01:01:23;;;;;;;12.07;9.55;;;21.90;99.90;;;;;;6304856;22;20009;-63
2023/06/09 01:03:50;;;;;;;10.13;9.13;;;21.80;99.90;;;;;;6305227;22;20097;-63
2023/06/09 01:06:32;;;;;;;11.80;9.20;;;21.80;99.90;;;;;;6305098;22;20003;-62
2023/06/09 01:09:28;;;;;;;9.05;7.78;;;21.70;99.90;;;;;;6305173;22;20003;-63
2023/06/09 01:11:57;;;;;;;9.25;8.02;;;21.70;99.90;;;;;;6303855;22;20026;-63
2023/06/09 01:14:44;;;;;;;9.65;7.70;;;21.90;99.90;;;;;;6305143;22;20014;-62
2023/06/09 01:17:18;;;;;;;10.20;7.55;;;21.90;99.90;;;;;;6304550;22;20057;-63
2023/06/09 01:19:47;;;;;;;11.45;7.10;;;21.90;99.90;;;;;;6304617;22;20061;-63
2023/06/09 01:22:31;;;;;;;7.97;6.90;;;21.90;99.90;;;;;;6304734;22;20018;-63
2023/06/09 01:25:25;;;;;;;8.48;6.88;;;21.90;99.90;;;;;;6305175;22;20021;-62
2023/06/09 01:27:52;;;;;;;9.60;6.85;;;21.90;99.90;;;;;;6305471;22;19999;-63
2023/06/09 01:30:20;;;;;;;9.40;7.07;;;22.00;99.90;;;;;;6304358;22;20065;-63
2023/06/09 01:32:48;;;;;;;8.13;6.88;;;21.90;99.90;;;;;;6304986;22;20430;-63
2023/06/09 01:35:14;;;;;;;9.98;8.00;;;21.90;99.90;;;;;;6304623;22;20027;-63
2023/06/09 01:37:40;;;;;;;8.52;7.60;;;21.80;99.90;;;;;;6305372;22;20006;-61
2023/06/09 01:40:07;;;;;;;9.75;7.78;;;21.70;99.90;;;;;;6306922;22;19999;-62
2023/06/09 01:42:32;;;;;;;8.65;7.75;;;21.70;99.90;;;;;;6279100;22;20015;-62
2023/06/09 01:44:58;;;;;;;9.40;7.20;;;21.60;99.90;;;;;;6306758;22;20010;-63
2023/06/09 01:47:24;;;;;;;10.13;7.45;;;21.60;99.90;;;;;;6307549;22;20011;-62
2023/06/09 01:50:03;;;;;;;8.40;7.60;;;21.60;99.90;;;;;;6306739;22;20004;-62
2023/06/09 01:52:47;;;;;;;10.05;7.47;;;21.60;99.90;;;;;;6306592;22;20014;-63
2023/06/09 01:55:28;;;;;;;9.30;7.43;;;21.60;99.90;;;;;;6307109;22;20014;-62
2023/06/09 01:57:59;;;;;;;8.65;7.40;;;21.60;99.90;;;;;;6306733;22;20007;-63
2023/06/09 02:00:26;;;;;;;9.52;7.65;;;21.60;99.90;;;;;;6306376;22;20420;-62
2023/06/09 02:02:59;;;;;;;8.32;7.20;;;21.60;99.90;;;;;;6306729;22;20019;-63
2023/06/09 02:05:26;;;;;;;11.00;6.87;;;21.60;99.90;;;;;;6307085;22;20014;-62
2023/06/09 02:07:53;;;;;;;7.60;6.90;;;21.60;99.90;;;;;;6306635;22;20225;-62
2023/06/09 02:10:22;;;;;;;10.07;7.55;;;21.60;99.90;;;;;;6306952;22;20045;-63
2023/06/09 02:12:48;;;;;;;8.68;7.35;;;21.60;99.90;;;;;;6306915;22;20007;-63
2023/06/09 02:15:14;;;;;;;9.95;6.75;;;21.50;99.90;;;;;;6306238;22;20038;-63
2023/06/09 02:17:39;;;;;;;10.75;6.97;;;21.50;99.90;;;;;;6306761;22;20050;-63
2023/06/09 02:20:08;;;;;;;13.10;7.25;;;21.50;99.90;;;;;;6306865;22;19999;-63
2023/06/09 02:22:35;;;;;;;8.77;6.75;;;21.50;99.90;;;;;;6306272;22;20018;-63
2023/06/09 02:25:01;;;;;;;10.02;7.13;;;21.50;99.90;;;;;;6306667;22;20438;-62
2023/06/09 02:27:27;;;;;;;10.43;7.30;;;21.50;99.90;;;;;;6306764;22;20082;-63
2023/06/09 02:29:53;;;;;;;8.82;7.25;;;21.50;99.90;;;;;;6306538;22;20384;-62
2023/06/09 02:32:18;;;;;;;9.90;7.00;;;21.50;99.90;;;;;;6305991;22;20026;-62
2023/06/09 02:34:45;;;;;;;9.27;7.25;;;21.50;99.90;;;;;;6306641;22;20003;-62
2023/06/09 02:37:11;;;;;;;9.00;7.00;;;21.50;99.90;;;;;;6306665;22;20010;-63
2023/06/09 02:39:36;;;;;;;9.13;7.20;;;21.50;99.90;;;;;;6306564;22;20018;-61
2023/06/09 02:42:03;;;;;;;9.02;6.93;;;21.50;99.90;;;;;;6279157;22;20014;-62
2023/06/09 02:44:31;;;;;;;11.00;7.05;;;21.60;99.90;;;;;;6305829;22;20373;-63
2023/06/09 02:46:59;;;;;;;9.35;6.88;;;21.50;99.90;;;;;;6306231;22;20014;-62
2023/06/09 02:49:24;;;;;;;8.75;6.70;;;21.50;99.90;;;;;;6305811;22;20499;-62
2023/06/09 02:51:50;;;;;;;7.13;6.38;;;21.50;99.90;;;;;;6306525;22;20410;-61
2023/06/09 02:54:16;;;;;;;7.80;6.70;;;21.50;99.90;;;;;;6306459;22;20003;-63
2023/06/09 02:56:41;;;;;;;8.38;6.60;;;21.50;99.90;;;;;;6306353;22;20006;-62
2023/06/09 02:59:07;;;;;;;9.27;6.30;;;21.50;99.90;;;;;;6305841;22;20007;-63
2023/06/09 03:01:36;;;;;;;11.15;7.10;;;21.50;99.90;;;;;;6305846;22;20053;-63
2023/06/09 03:04:06;;;;;;;9.18;7.03;;;21.50;99.90;;;;;;6306527;22;20060;-63
2023/06/09 03:06:36;;;;;;;9.93;6.80;;;21.40;99.90;;;;;;6306117;22;20351;-62
2023/06/09 03:09:03;;;;;;;12.30;7.85;;;21.40;99.90;;;;;;6306212;22;20011;-61
2023/06/09 03:11:32;;;;;;;9.23;7.10;;;21.40;99.90;;;;;;6305541;22;20007;-62
2023/06/09 03:13:58;;;;;;;8.50;6.70;;;21.40;99.90;;;;;;6306803;22;20007;-62
2023/06/09 03:16:23;;;;;;;9.27;7.32;;;21.40;99.90;;;;;;6306227;22;20092;-62
2023/06/09 03:18:49;;;;;;;11.88;7.10;;;21.40;99.90;;;;;;6306414;22;20338;-62
2023/06/09 03:21:15;;;;;;;9.07;6.95;;;21.40;99.90;;;;;;6306162;22;20027;-62
2023/06/09 03:23:40;;;;;;;8.23;6.80;;;21.40;99.90;;;;;;6305747;22;20060;-62
2023/06/09 03:26:07;;;;;;;10.88;7.07;;;21.40;99.90;;;;;;6305927;22;20090;-63
2023/06/09 03:28:33;;;;;;;9.88;7.15;;;21.40;99.90;;;;;;6305873;22;20006;-62
2023/06/09 03:30:58;;;;;;;8.80;6.90;;;21.40;99.90;;;;;;6305521;22;20015;-63
2023/06/09 03:33:25;;;;;;;11.43;7.28;;;21.40;99.90;;;;;;6278384;22;20011;-63
2023/06/09 03:35:51;;;;;;;11.43;7.25;;;21.40;99.90;;;;;;6306544;22;20381;-62
2023/06/09 03:38:17;;;;;;;9.40;6.93;;;21.40;99.90;;;;;;6305537;22;20029;-61
2023/06/09 03:40:43;;;;;;;10.52;7.72;;;21.40;99.90;;;;;;6305231;22;20388;-63
2023/06/09 03:43:11;;;;;;;9.05;7.25;;;21.30;99.90;;;;;;6306002;22;20338;-63
2023/06/09 03:45:36;;;;;;;11.60;7.38;;;21.30;99.90;;;;;;6305485;22;20046;-62
2023/06/09 03:48:04;;;;;;;12.98;6.82;;;21.30;99.90;;;;;;6305850;22;20446;-63
2023/06/09 03:50:30;;;;;;;11.38;7.15;;;21.30;99.90;;;;;;6305545;22;19999;-63
2023/06/09 03:52:55;;;;;;;10.13;6.95;;;21.30;99.90;;;;;;6305542;22;20003;-63
2023/06/09 03:55:24;;;;;;;11.63;7.13;;;21.30;99.90;;;;;;6277897;22;20056;-62
2023/06/09 03:57:50;;;;;;;10.75;6.57;;;21.30;99.90;;;;;;6305904;22;20048;-62
2023/06/09 04:00:17;;;;;;;10.95;7.47;;;21.30;99.90;;;;;;6305291;22;19999;-62
2023/06/09 04:02:43;;;;;;;11.27;7.22;;;21.20;99.90;;;;;;6305421;22;20376;-63
2023/06/09 04:05:09;;;;;;;10.52;6.75;;;21.20;99.90;;;;;;6305946;22;20337;-61
2023/06/09 04:07:35;;;;;;;12.48;6.93;;;21.20;99.90;;;;;;6305472;22;20000;-62
2023/06/09 04:10:02;;;;;;;11.27;6.68;;;21.20;99.90;;;;;;6305178;22;19995;-63
2023/06/09 04:12:28;;;;;;;10.30;6.75;;;21.20;99.90;;;;;;6305272;22;20129;-63
2023/06/09 04:14:55;;;;;;;11.23;6.65;;;21.20;99.90;;;;;;6306092;22;20032;-62
2023/06/09 04:17:22;;;;;;;9.63;6.40;;;21.20;99.90;;;;;;6305410;22;20078;-63
2023/06/09 04:19:48;;;;;;;11.27;6.80;;;21.20;99.90;;;;;;6305453;22;20007;-63
2023/06/09 04:22:13;;;;;;;9.68;6.47;;;21.20;99.90;;;;;;6305599;22;20049;-63
2023/06/09 04:24:39;;;;;;;8.70;5.90;;;21.20;99.90;;;;;;6305022;22;20006;-62
2023/06/09 04:27:05;;;;;;;9.23;5.85;;;21.20;99.90;;;;;;6305580;22;19999;-62
2023/06/09 04:29:33;;;;;;;8.90;6.07;;;21.20;99.90;;;;;;6305055;22;20357;-63
2023/06/09 04:32:00;;;;;;;11.05;6.13;;;21.20;99.90;;;;;;6305070;22;20579;-63
2023/06/09 04:34:27;;;;;;;9.82;5.95;;;21.20;99.90;;;;;;6305267;22;20003;-63
2023/06/09 04:36:53;;;;;;;10.18;6.10;;;21.20;99.90;;;;;;6305295;22;19999;-62
2023/06/09 04:39:19;;;;;;;10.38;6.13;;;21.20;99.90;;;;;;6305316;22;20507;-63
2023/06/09 04:41:47;;;;;;;8.38;5.78;;;21.20;99.90;;;;;;6304880;22;20009;-62
2023/06/09 04:44:13;;;;;;;10.25;6.50;;;21.10;99.90;;;;;;6305204;22;20090;-61
2023/06/09 04:46:41;;;;;;;13.25;6.20;;;21.10;99.90;;;;;;6305181;22;20019;-62
2023/06/09 04:49:10;;;;;;;9.65;6.22;;;21.10;99.90;;;;;;6305114;22;19999;-63
2023/06/09 04:51:47;;;;;;;13.32;5.70;;;21.20;99.90;;;;;;6305328;22;19995;-62
2023/06/09 04:54:25;;;;;;;9.93;5.75;;;21.20;99.90;;;;;;6304373;22;20011;-63
2023/06/09 04:56:57;;;;;;;9.27;6.28;;;21.10;99.90;;;;;;6305337;22;20007;-62
2023/06/09 04:59:23;;;;;;;11.20;6.15;;;21.10;99.90;;;;;;6305815;22;20003;-62
2023/06/09 05:01:52;;;;;;;9.43;5.68;;;21.10;99.90;;;;;;6305303;22;20131;-62
2023/06/09 05:04:18;;;;;;;9.32;5.97;;;21.00;99.90;;;;;;6305064;22;20508;-61
2023/06/09 05:06:44;;;;;;;9.88;5.95;;;21.00;99.90;;;;;;6305222;22;20010;-62
2023/06/09 05:09:10;;;;;;;9.73;5.63;;;21.00;99.90;;;;;;6304998;22;20396;-63
2023/06/09 05:11:36;;;;;;;8.98;6.00;;;21.10;99.90;;;;;;6305165;22;20000;-62
2023/06/09 05:14:05;;;;;;;9.18;6.00;;;21.00;99.90;;;;;;6306765;22;20007;-63
2023/06/09 05:16:31;;;;;;;10.15;5.80;;;21.10;99.90;;;;;;6307655;22;20135;-62
2023/06/09 05:18:57;;;;;;;9.80;5.93;;;21.10;99.90;;;;;;6308047;22;20007;-62
2023/06/09 05:21:24;;;;;;;10.38;5.90;;;21.20;99.90;;;;;;6307128;22;20066;-61
2023/06/09 05:23:50;;;;;;;7.32;5.38;;;21.20;99.90;;;;;;6306739;22;20492;-63
2023/06/09 05:26:19;;;;;;;8.95;5.25;;;21.20;99.90;;;;;;6307185;22;19999;-62
2023/06/09 05:28:48;;;;;;;8.95;5.50;;;21.20;99.90;;;;;;6307519;22;20082;-63
2023/06/09 05:31:15;;;;;;;8.05;5.80;;;21.20;99.90;;;;;;6307074;22;20008;-62
2023/06/09 05:33:42;;;;;;;10.27;5.88;;;21.20;99.90;;;;;;6307437;22;20006;-63
2023/06/09 05:36:08;;;;;;;9.20;5.63;;;21.20;99.90;;;;;;6307069;22;20384;-63
2023/06/09 05:38:34;;;;;;;12.10;6.35;;;21.30;99.90;;;;;;6279605;22;20078;-63
2023/06/09 05:41:00;;;;;;;10.25;5.80;;;21.30;99.90;;;;;;6306799;22;20026;-61
2023/06/09 05:43:27;;;;;;;9.23;6.20;;;21.20;99.90;;;;;;6306876;22;20446;-62
2023/06/09 05:45:53;;;;;;;9.48;5.78;;;21.30;99.90;;;;;;6307068;22;20002;-62
2023/06/09 05:48:19;;;;;;;8.25;5.28;;;21.30;99.90;;;;;;6307299;22;19999;-63
2023/06/09 05:50:47;;;;;;;8.88;6.03;;;21.30;99.90;;;;;;6306983;22;20006;-63
2023/06/09 05:53:15;;;;;;;11.07;5.35;;;21.30;99.90;;;;;;6306307;22;20003;-63
2023/06/09 05:55:41;;;;;;;12.63;5.78;;;21.20;99.90;;;;;;6306936;22;20426;-63
2023/06/09 05:58:07;;;;;;;8.73;5.72;;;21.30;99.90;;;;;;6306772;22;20007;-63
2023/06/09 06:00:33;;;;;;;8.90;5.47;;;21.20;99.90;;;;;;6307187;22;20030;-63
2023/06/09 06:03:03;;;;;;;8.45;5.28;;;21.20;99.90;;;;;;6306747;22;20007;-63
2023/06/09 06:05:29;;;;;;;12.95;6.22;;;21.30;99.90;;;;;;6306621;22;20065;-63
2023/06/09 06:07:58;;;;;;;13.13;6.32;;;21.20;99.90;;;;;;6306707;22;20003;-63
2023/06/09 06:10:24;;;;;;;11.93;6.70;;;21.20;99.90;;;;;;6306659;22;20112;-63
2023/06/09 06:12:50;;;;;;;10.95;6.78;;;21.10;99.90;;;;;;6306814;22;20022;-63
2023/06/09 06:15:16;;;;;;;14.93;7.65;;;21.00;99.90;;;;;;6306743;22;20003;-64
2023/06/09 06:17:41;;;;;;;16.75;8.75;;;21.00;99.90;;;;;;6306869;22;20462;-63
2023/06/09 06:20:07;;;;;;;16.08;8.52;;;20.90;99.90;;;;;;6306147;22;20311;-63
2023/06/09 06:22:33;;;;;;;14.32;7.32;;;20.90;99.90;;;;;;6306301;22;20034;-63
2023/06/09 06:24:59;;;;;;;10.27;7.05;;;21.00;99.90;;;;;;6305812;22;19999;-63
2023/06/09 06:27:25;;;;;;;13.38;7.90;;;21.00;99.90;;;;;;6306935;22;20342;-63
2023/06/09 06:29:50;;;;;;;12.75;7.25;;;20.90;99.90;;;;;;6306507;22;20003;-62
2023/06/09 06:32:16;;;;;;;11.07;7.75;;;20.90;99.90;;;;;;6306293;22;20023;-64
2023/06/09 06:34:42;;;;;;;11.52;7.10;;;20.80;99.90;;;;;;6305802;22;20007;-63
2023/06/09 06:37:07;;;;;;;11.48;6.93;;;20.70;99.90;;;;;;6306795;22;20003;-62
2023/06/09 06:39:33;;;;;;;12.60;7.80;;;20.70;99.90;;;;;;6306276;22;19995;-62
2023/06/09 06:41:59;;;;;;;12.88;7.68;;;20.70;99.90;;;;;;6306492;22;20051;-61
2023/06/09 06:44:25;;;;;;;11.68;8.07;;;20.80;99.90;;;;;;6306310;22;20434;-62
2023/06/09 06:46:51;;;;;;;12.02;7.85;;;20.70;99.90;;;;;;6306578;22;19999;-63
2023/06/09 06:49:16;;;;;;;12.40;8.02;;;20.70;99.90;;;;;;6305437;22;20010;-63
2023/06/09 06:51:42;;;;;;;13.35;7.95;;;20.80;99.90;;;;;;6305660;22;20003;-62
2023/06/09 06:54:08;;;;;;;13.07;8.13;;;20.80;99.90;;;;;;6305895;22;20007;-63
2023/06/09 06:56:33;;;;;;;11.90;7.63;;;20.80;99.90;;;;;;6305484;22;19995;-62
2023/06/09 06:58:59;;;;;;;10.32;7.72;;;20.80;99.90;;;;;;6306272;22;20007;-62
2023/06/09 07:01:25;;;;;;;10.13;7.97;;;20.80;99.90;;;;;;6306340;22;20003;-63
2023/06/09 07:03:52;;;;;;;14.75;8.07;;;20.80;99.90;;;;;;6305647;22;20007;-63
2023/06/09 07:06:19;;;;;;;16.10;8.88;;;20.80;99.90;;;;;;6305607;22;20015;-63
2023/06/09 07:08:45;;;;;;;13.30;8.80;;;20.80;99.90;;;;;;6306372;22;20003;-64
2023/06/09 07:11:10;;;;;;;11.13;8.00;;;20.80;99.90;;;;;;6306382;22;20010;-63
2023/06/09 07:13:36;;;;;;;11.18;7.60;;;20.80;99.90;;;;;;6305938;22;20007;-62
2023/06/09 07:16:02;;;;;;;10.20;7.55;;;20.80;99.90;;;;;;6305837;22;20008;-62
2023/06/09 07:18:28;;;;;;;8.27;7.40;;;20.80;99.90;;;;;;6305714;22;20007;-62
2023/06/09 07:20:54;;;;;;;11.93;7.72;;;20.90;99.90;;;;;;6306050;22;20003;-62
2023/06/09 07:23:19;;;;;;;9.90;7.30;;;20.90;99.90;;;;;;6305476;22;20446;-62
2023/06/09 07:25:45;;;;;;;9.65;7.90;;;20.90;99.90;;;;;;6305544;22;20109;-63
2023/06/09 07:28:11;;;;;;;9.98;7.15;;;20.90;99.90;;;;;;6306045;22;20007;-62
2023/06/09 07:30:41;;;;;;;8.88;7.20;;;21.00;99.90;;;;;;6305056;22;20011;-65
2023/06/09 07:33:07;;;;;;;10.15;7.93;;;21.00;99.90;;;;;;6305755;22;20003;-63
2023/06/09 07:35:33;;;;;;;13.73;7.75;;;20.90;99.90;;;;;;6305341;22;20003;-64
2023/06/09 07:37:59;;;;;;;12.48;8.05;;;20.90;99.90;;;;;;6305954;22;20053;-63
2023/06/09 07:40:24;;;;;;;10.13;7.57;;;21.00;99.90;;;;;;6305930;22;20011;-63
2023/06/09 07:42:50;;;;;;;11.40;7.47;;;21.00;99.90;;;;;;6305392;22;20057;-62
2023/06/09 07:45:16;;;;;;;13.68;7.82;;;21.00;99.90;;;;;;6304783;22;20010;-62
2023/06/09 07:47:42;;;;;;;13.05;7.82;;;21.00;99.90;;;;;;6305068;22;20105;-64
2023/06/09 07:50:08;;;;;;;10.95;7.88;;;21.00;99.90;;;;;;6306290;22;20057;-64
2023/06/09 07:52:37;;;;;;;11.20;7.90;;;21.00;99.90;;;;;;6305880;22;20346;-64
2023/06/09 07:55:06;;;;;;;10.73;7.60;;;21.10;99.90;;;;;;6305943;22;20052;-63
2023/06/09 07:57:32;;;;;;;11.38;8.00;;;21.10;99.90;;;;;;6305614;22;20011;-61
2023/06/09 07:59:58;;;;;;;10.75;8.10;;;21.10;99.90;;;;;;6305640;22;20003;-62
2023/06/09 08:02:23;;;;;;;11.10;7.55;;;21.10;99.90;;;;;;6305543;22;20011;-63
2023/06/09 08:04:49;;;;;;;10.43;7.50;;;21.10;99.90;;;;;;6305508;22;20492;-62
2023/06/09 08:07:15;;;;;;;11.30;7.65;;;21.10;99.90;;;;;;6305659;22;20086;-62
2023/06/09 08:09:41;;;;;;;8.10;6.85;;;21.10;99.90;;;;;;6305504;22;19996;-61
2023/06/09 08:12:07;;;;;;;8.70;7.82;;;21.10;99.90;;;;;;6306260;22;20078;-62
2023/06/09 08:14:33;;;;;;;10.68;7.85;;;21.20;99.90;;;;;;6305350;22;20003;-63
2023/06/09 08:16:59;;;;;;;9.15;7.57;;;21.20;99.90;;;;;;6305097;22;20000;-62
2023/06/09 08:19:25;;;;;;;11.48;7.53;;;21.30;99.90;;;;;;6305384;22;20030;-62
2023/06/09 08:21:50;;;;;;;8.18;7.20;;;21.30;99.90;;;;;;6305525;22;20077;-62
2023/06/09 08:24:16;;;;;;;9.30;6.90;;;21.30;99.90;;;;;;6305790;22;20761;-62
2023/06/09 08:26:43;;;;;;;9.00;6.88;;;21.40;99.90;;;;;;6305596;22;20007;-63
2023/06/09 08:29:10;;;;;;;7.10;6.40;;;21.40;99.90;;;;;;6305229;22;20003;-62
2023/06/09 08:31:39;;;;;;;8.55;6.60;;;21.40;99.90;;;;;;6304925;22;20020;-63
2023/06/09 08:34:05;;;;;;;8.60;6.63;;;21.40;99.90;;;;;;6305708;22;20034;-63
2023/06/09 08:36:31;;;;;;;9.45;6.20;;;21.50;99.90;;;;;;6305729;22;20052;-63
2023/06/09 08:38:57;;;;;;;8.45;7.03;;;21.60;99.90;;;;;;6305555;22;20086;-63
2023/06/09 08:41:27;;;;;;;8.98;6.47;;;21.70;99.90;;;;;;6305254;22;20031;-63
2023/06/09 08:43:53;;;;;;;7.80;6.07;;;21.70;99.90;;;;;;6305555;22;20011;-63
2023/06/09 08:46:21;;;;;;;9.38;6.05;;;21.70;99.90;;;;;;6305613;22;20010;-62
2023/06/09 08:48:56;;;;;;;7.97;5.88;;;21.80;99.90;;;;;;6305014;22;20465;-62
2023/06/09 08:51:22;;;;;;;7.53;6.65;;;21.90;99.90;;;;;;6305279;22;20003;-63
2023/06/09 08:53:52;;;;;;;7.28;5.90;;;21.90;99.90;;;;;;6305600;22;20450;-63
2023/06/09 08:56:21;;;;;;;6.15;5.55;;;21.90;99.90;;;;;;6305964;22;20346;-63
2023/06/09 08:58:47;;;;;;;6.63;5.95;;;22.00;99.90;;;;;;6304972;22;20034;-63
2023/06/09 09:01:14;;;;;;;5.75;5.25;;;22.00;99.90;;;;;;6304940;22;20003;-63
2023/06/09 09:03:40;;;;;;;9.15;5.75;;;22.10;99.90;;;;;;6305634;22;20015;-63
2023/06/09 09:06:06;;;;;;;6.10;5.50;;;22.20;99.90;;;;;;6305253;22;20329;-63
2023/06/09 09:08:32;;;;;;;8.77;5.35;;;22.20;99.90;;;;;;6305537;22;20358;-63
2023/06/09 09:10:58;;;;;;;6.07;5.43;;;22.30;99.90;;;;;;6305172;22;19995;-63
2023/06/09 09:13:30;;;;;;;6.07;5.32;;;22.40;99.90;;;;;;6305217;22;20006;-63
2023/06/09 09:15:58;;;;;;;6.00;5.00;;;22.50;99.90;;;;;;6304511;22;20006;-62
2023/06/09 09:18:28;;;;;;;6.25;5.00;;;22.60;99.90;;;;;;6305569;22;20003;-62
2023/06/09 09:20:55;;;;;;;5.30;4.75;;;22.70;99.90;;;;;;6305350;22;20010;-63
2023/06/09 09:23:31;;;;;;;6.60;4.53;;;22.70;99.90;;;;;;6305035;22;20528;-64
2023/06/09 09:26:03;;;;;;;5.25;4.20;;;22.80;99.90;;;;;;6304901;22;20023;-62
2023/06/09 09:28:39;;;;;;;6.05;4.45;;;22.90;99.90;;;;;;6305343;22;20024;-63
2023/06/09 09:31:08;;;;;;;5.18;4.10;;;22.90;99.90;;;;;;6304694;22;20070;-63
2023/06/09 09:33:36;;;;;;;7.45;4.75;;;23.00;99.90;;;;;;6305165;22;20322;-62
2023/06/09 09:36:03;;;;;;;5.18;4.50;;;23.10;99.90;;;;;;6305449;22;20003;-63
2023/06/09 09:38:30;;;;;;;5.82;4.32;;;23.20;99.90;;;;;;6305241;22;20057;-63
2023/06/09 09:40:57;;;;;;;6.85;4.30;;;23.20;99.90;;;;;;6304977;22;20010;-63
2023/06/09 09:43:27;;;;;;;5.57;4.30;;;23.30;99.90;;;;;;6304141;22;20102;-63
2023/06/09 09:45:54;;;;;;;4.80;3.85;;;23.40;99.90;;;;;;6304828;22;20006;-63
2023/06/09 09:48:22;;;;;;;6.20;4.00;;;23.40;99.90;;;;;;6304751;22;20474;-63
2023/06/09 09:50:51;;;;;;;5.18;4.00;;;23.50;99.90;;;;;;6305134;22;20434;-63
2023/06/09 09:53:17;;;;;;;6.25;4.15;;;23.60;99.90;;;;;;6304769;22;20365;-61
2023/06/09 09:55:45;;;;;;;4.70;3.83;;;23.60;99.90;;;;;;6304855;22;20442;-63
2023/06/09 09:58:12;;;;;;;12.52;4.95;;;23.70;99.90;;;;;;6304932;22;20007;-63
2023/06/09 10:00:40;;;;;;;4.72;3.53;;;23.80;99.90;;;;;;6306595;22;19995;-63
2023/06/09 10:03:13;;;;;;;3.58;3.10;;;23.80;99.90;;;;;;6306684;22;20477;-63
2023/06/09 10:05:46;;;;;;;3.95;3.10;;;23.90;99.90;;;;;;6307170;22;20764;-62
2023/06/09 10:08:19;;;;;;;4.25;2.72;;;23.90;99.90;;;;;;6307106;22;20433;-62
2023/06/09 10:10:46;;;;;;;4.43;2.78;;;24.00;99.90;;;;;;6306947;22;20019;-63
2023/06/09 10:13:12;;;;;;;3.10;2.90;;;24.20;99.90;;;;;;6306346;22;20049;-62
2023/06/09 10:15:42;;;;;;;3.55;3.25;;;24.20;99.90;;;;;;6306091;22;19999;-62
2023/06/09 10:18:09;;;;;;;3.08;2.70;;;24.30;99.90;;;;;;6307287;22;20018;-62
2023/06/09 10:20:35;;;;;;;3.15;2.85;;;24.30;99.90;;;;;;6306349;22;19999;-62
2023/06/09 10:23:01;;;;;;;8.85;8.05;;;24.40;99.90;;;;;;6306147;22;20007;-62
2023/06/09 10:25:27;;;;;;;11.13;10.13;;;24.40;99.90;;;;;;6306807;22;20014;-61
2023/06/09 10:27:53;;;;;;;10.02;8.43;;;24.40;99.90;;;;;;6306745;22;20015;-63
2023/06/09 10:30:20;;;;;;;6.95;6.05;;;24.50;99.90;;;;;;6306108;22;20387;-62
2023/06/09 10:32:57;;;;;;;4.22;3.83;;;24.50;99.90;;;;;;6306415;22;20007;-62
2023/06/09 10:35:31;;;;;;;8.50;6.90;;;24.50;99.90;;;;;;6306296;22;20074;-62
2023/06/09 10:37:58;;;;;;;4.78;4.28;;;24.50;99.90;;;;;;6279025;22;20007;-61
2023/06/09 10:40:46;;;;;;;3.85;3.53;;;24.60;99.90;;;;;;6306511;22;20000;-62
2023/06/09 10:43:12;;;;;;;5.60;4.38;;;24.50;99.90;;;;;;6306233;22;20011;-62
2023/06/09 10:45:58;;;;;;;5.28;3.53;;;24.50;99.90;;;;;;6306197;22;19999;-62
2023/06/09 10:48:43;;;;;;;4.72;3.40;;;24.50;99.90;;;;;;6305814;22;20387;-62
2023/06/09 10:51:27;;;;;;;4.03;3.45;;;24.50;99.90;;;;;;6306573;22;20003;-62
2023/06/09 10:54:12;;;;;;;4.88;3.15;;;24.40;99.90;;;;;;6306053;22;20082;-62
2023/06/09 10:56:40;;;;;;;4.95;3.40;;;24.30;99.90;;;;;;6305815;22;20465;-62
2023/06/09 10:59:06;;;;;;;3.83;3.42;;;24.30;99.90;;;;;;6306489;22;20006;-62
2023/06/09 11:01:32;;;;;;;3.70;3.40;;;24.20;99.90;;;;;;6306269;22;20525;-62
2023/06/09 11:03:58;;;;;;;5.55;3.08;;;24.20;99.90;;;;;;6306235;22;20035;-62
2023/06/09 11:06:24;;;;;;;5.50;3.95;;;24.20;99.90;;;;;;6306170;22;20468;-62
2023/06/09 11:09:09;;;;;;;4.93;3.15;;;24.20;99.90;;;;;;6306536;22;20069;-61
2023/06/09 11:11:50;;;;;;;5.70;3.35;;;24.20;99.90;;;;;;6305283;22;20023;-62
2023/06/09 11:14:44;;;;;;;3.70;3.38;;;24.20;99.90;;;;;;6306340;22;20076;-62
2023/06/09 11:17:25;;;;;;;4.07;3.20;;;24.20;99.90;;;;;;6306489;22;20002;-62
2023/06/09 11:19:52;;;;;;;4.88;3.50;;;24.20;99.90;;;;;;6305927;22;20003;-62
2023/06/09 11:22:18;;;;;;;4.53;3.85;;;24.20;99.90;;;;;;6306164;22;20007;-62
2023/06/09 11:24:51;;;;;;;3.90;3.45;;;24.20;99.90;;;;;;6305432;22;20342;-61
2023/06/09 11:27:21;;;;;;;4.18;3.67;;;24.20;99.90;;;;;;6306450;22;20003;-62
2023/06/09 11:30:07;;;;;;;5.07;3.85;;;24.10;99.90;;;;;;6305602;22;20508;-63
2023/06/09 11:33:02;;;;;;;4.22;3.55;;;24.10;99.90;;;;;;6275241;22;20015;-62
2023/06/09 11:35:30;;;;;;;5.88;4.15;;;24.20;99.90;;;;;;6274933;22;19999;-62
2023/06/09 11:38:05;;;;;;;3.63;3.33;;;24.20;99.90;;;;;;6275019;22;20034;-62
2023/06/09 11:40:33;;;;;;;4.88;3.40;;;24.30;99.90;;;;;;6274839;22;20057;-62
2023/06/09 11:43:01;;;;;;;3.47;3.17;;;24.20;99.90;;;;;;6275021;22;20083;-62
2023/06/09 11:45:30;;;;;;;3.42;3.13;;;24.30;99.90;;;;;;6275032;22;20083;-61
2023/06/09 11:47:57;;;;;;;3.85;3.45;;;24.30;99.90;;;;;;6275198;22;20003;-61
2023/06/09 11:50:25;;;;;;;5.35;3.30;;;24.40;99.90;;;;;;6274997;22;20004;-61
2023/06/09 11:53:05;;;;;;;5.45;3.58;;;24.40;99.90;;;;;;6274709;22;20061;-61
2023/06/09 11:55:31;;;;;;;4.30;3.33;;;24.50;99.90;;;;;;6274400;22;20338;-61
2023/06/09 11:57:58;;;;;;;5.68;3.70;;;24.60;99.90;;;;;;6274763;22;20071;-62
2023/06/09 12:00:28;;;;;;;3.65;3.35;;;24.70;99.90;;;;;;6275296;22;20032;-62
2023/06/09 12:02:56;;;;;;;4.35;3.30;;;24.80;99.90;;;;;;6274804;22;20091;-62
2023/06/09 12:05:23;;;;;;;3.35;2.95;;;25.00;99.90;;;;;;6275309;22;20079;-61
2023/06/09 12:07:50;;;;;;;4.13;3.00;;;25.10;99.90;;;;;;6275239;22;20012;-61
2023/06/09 12:10:19;;;;;;;3.13;2.83;;;25.10;99.90;;;;;;6274000;22;20529;-62
2023/06/09 12:12:47;;;;;;;3.70;2.70;;;25.10;99.90;;;;;;6274716;22;20003;-61
2023/06/09 12:15:15;;;;;;;3.90;2.92;;;25.20;99.90;;;;;;6274392;22;20006;-62
2023/06/09 12:17:42;;;;;;;3.15;2.65;;;25.50;99.90;;;;;;6274682;22;20026;-61
2023/06/09 12:20:31;;;;;;;3.58;2.78;;;25.70;99.90;;;;;;6274256;22;20049;-62
2023/06/09 12:23:06;;;;;;;3.00;2.80;;;25.90;99.90;;;;;;6273912;22;20027;-62
2023/06/09 12:25:35;;;;;;;2.70;2.50;;;26.00;99.90;;;;;;6274361;22;20003;-61
2023/06/09 12:28:12;;;;;;;4.07;2.40;;;26.00;99.90;;;;;;6275051;22;20073;-62
2023/06/09 12:30:45;;;;;;;2.92;2.60;;;25.80;99.90;;;;;;6283224;22;19999;-62
2023/06/09 12:33:14;;;;;;;3.03;2.28;;;25.70;99.90;;;;;;6305651;22;20334;-62
2023/06/09 12:35:42;;;;;;;2.75;2.50;;;25.70;99.90;;;;;;6305162;22;19995;-63
2023/06/09 12:38:22;;;;;;;2.88;2.53;;;25.60;99.90;;;;;;6304545;22;19999;-62
2023/06/09 12:40:51;;;;;;;4.20;2.60;;;25.60;99.90;;;;;;6305511;22;20084;-62
2023/06/09 12:43:25;;;;;;;3.00;2.55;;;25.60;99.90;;;;;;6305422;22;20022;-62
2023/06/09 12:45:57;;;;;;;3.60;2.85;;;25.60;99.90;;;;;;6305196;22;20459;-62
2023/06/09 12:48:23;;;;;;;3.72;2.65;;;25.60;99.90;;;;;;6305154;22;19999;-63